createdAt,value
2019-02-10T00:00:37.164Z,1.20
2019-02-10T00:03:05.342Z,1.19
2019-02-10T00:05:33.517Z,1.19
2019-02-10T00:08:01.703Z,1.17
2019-02-10T00:10:29.875Z,1.16
2019-02-10T00:13:29.047Z,1.14
2019-02-10T00:15:59.924Z,1.11
2019-02-10T00:18:28.100Z,1.11
2019-02-10T00:20:56.267Z,1.12
2019-02-10T00:23:24.454Z,1.12
2019-02-10T00:25:52.633Z,1.12
2019-02-10T00:28:20.812Z,1.14
2019-02-10T00:30:48.982Z,1.14
2019-02-10T00:33:17.149Z,1.16
2019-02-10T00:35:45.408Z,1.19
2019-02-10T00:38:13.574Z,1.20
2019-02-10T00:40:41.754Z,1.20
2019-02-10T00:43:09.946Z,1.20
2019-02-10T00:45:38.122Z,1.18
2019-02-10T00:48:06.311Z,1.17
2019-02-10T00:50:34.488Z,1.15
2019-02-10T00:53:02.675Z,1.13
2019-02-10T00:55:30.842Z,1.12
2019-02-10T00:57:59.050Z,1.10
2019-02-10T01:00:27.238Z,1.08
2019-02-10T01:02:55.412Z,1.05
2019-02-10T01:05:23.592Z,1.05
2019-02-10T01:07:52.030Z,1.03
2019-02-10T01:10:20.988Z,1.01
2019-02-10T01:12:49.169Z,0.98
2019-02-10T01:15:17.347Z,0.96
2019-02-10T01:17:45.535Z,0.95
2019-02-10T01:20:13.715Z,0.92
2019-02-10T01:22:41.893Z,0.89
2019-02-10T01:25:10.066Z,0.87
2019-02-10T01:27:38.239Z,0.87
2019-02-10T01:30:09.808Z,0.88
2019-02-10T01:32:38.026Z,0.87
2019-02-10T01:35:06.157Z,0.87
2019-02-10T01:37:34.333Z,0.86
2019-02-10T01:40:02.534Z,0.85
2019-02-10T01:42:30.707Z,0.85
2019-02-10T01:44:58.886Z,0.86
2019-02-10T01:47:27.064Z,0.88
2019-02-10T01:49:55.243Z,0.87
2019-02-10T01:52:23.416Z,0.87
2019-02-10T01:54:51.611Z,0.87
2019-02-10T01:57:19.793Z,0.87
2019-02-10T01:59:47.963Z,0.87
2019-02-10T02:02:16.138Z,0.88
2019-02-10T02:04:44.391Z,0.87
2019-02-10T02:07:12.580Z,0.87
2019-02-10T02:09:40.771Z,0.86
2019-02-10T02:12:09.116Z,0.85
2019-02-10T02:14:37.298Z,0.83
2019-02-10T02:17:05.479Z,0.81
2019-02-10T02:19:33.667Z,0.78
2019-02-10T02:22:01.841Z,0.77
2019-02-10T02:24:30.054Z,0.75
2019-02-10T02:26:58.232Z,0.73
2019-02-10T02:29:26.408Z,0.72
2019-02-10T02:31:54.580Z,0.70
2019-02-10T02:34:22.752Z,0.70
2019-02-10T02:36:50.932Z,0.69
2019-02-10T02:39:19.120Z,0.70
2019-02-10T02:41:47.308Z,0.70
2019-02-10T02:44:15.502Z,0.72
2019-02-10T02:46:43.685Z,0.72
2019-02-10T02:49:11.859Z,0.70
2019-02-10T02:51:40.047Z,0.68
2019-02-10T02:54:08.228Z,0.67
2019-02-10T02:56:36.439Z,0.67
2019-02-10T02:59:04.620Z,0.67
2019-02-10T03:01:32.795Z,0.67
2019-02-10T03:04:00.971Z,0.67
2019-02-10T03:06:30.793Z,0.67
2019-02-10T03:09:00.605Z,0.67
2019-02-10T03:11:28.789Z,0.69
2019-02-10T03:13:58.628Z,0.70
2019-02-10T03:16:26.809Z,0.70
2019-02-10T03:18:54.993Z,0.70
2019-02-10T03:21:23.230Z,0.70
2019-02-10T03:23:51.411Z,0.70
2019-02-10T03:26:19.624Z,0.70
2019-02-10T03:28:47.828Z,0.70
2019-02-10T03:31:16.016Z,0.71
2019-02-10T03:33:44.198Z,0.70
2019-02-10T03:36:12.461Z,0.70
2019-02-10T03:38:40.650Z,0.69
2019-02-10T03:41:08.845Z,0.67
2019-02-10T03:43:37.021Z,0.66
2019-02-10T03:46:05.217Z,0.65
2019-02-10T03:48:33.384Z,0.63
2019-02-10T03:51:01.569Z,0.63
2019-02-10T03:53:29.792Z,0.62
2019-02-10T03:55:57.975Z,0.61
2019-02-10T03:58:26.159Z,0.60
2019-02-10T04:00:54.362Z,0.60
2019-02-10T04:03:22.548Z,0.59
2019-02-10T04:05:50.729Z,0.59
2019-02-10T04:08:18.907Z,0.59
2019-02-10T04:10:47.115Z,0.59
2019-02-10T04:13:15.293Z,0.60
2019-02-10T04:15:43.476Z,0.60
2019-02-10T04:18:11.659Z,0.60
2019-02-10T04:20:39.837Z,0.62
2019-02-10T04:23:09.382Z,0.63
2019-02-10T04:25:37.566Z,0.63
2019-02-10T04:28:05.750Z,0.64
2019-02-10T04:30:33.951Z,0.66
2019-02-10T04:33:02.163Z,0.66
2019-02-10T04:35:30.368Z,0.66
2019-02-10T04:37:58.550Z,0.67
2019-02-10T04:40:26.723Z,0.65
2019-02-10T04:42:54.968Z,0.66
2019-02-10T04:45:23.187Z,0.66
2019-02-10T04:47:51.360Z,0.65
2019-02-10T04:50:19.588Z,0.66
2019-02-10T04:52:47.877Z,0.65
2019-02-10T04:55:16.066Z,0.66
2019-02-10T04:57:44.243Z,0.64
2019-02-10T05:00:12.451Z,0.65
2019-02-10T05:02:40.669Z,0.63
2019-02-10T05:05:08.852Z,0.63
2019-02-10T05:07:37.143Z,0.63
2019-02-10T05:10:05.634Z,0.62
2019-02-10T05:12:33.815Z,0.62
2019-02-10T05:15:02.001Z,0.61
2019-02-10T05:17:30.213Z,0.60
2019-02-10T05:19:58.426Z,0.62
2019-02-10T05:22:26.687Z,0.62
2019-02-10T05:24:54.914Z,0.62
2019-02-10T05:27:23.114Z,0.64
2019-02-10T05:29:51.324Z,0.66
2019-02-10T05:32:19.513Z,0.65
2019-02-10T05:34:47.737Z,0.64
2019-02-10T05:37:15.953Z,0.63
2019-02-10T05:39:44.132Z,0.62
2019-02-10T05:42:12.353Z,0.62
2019-02-10T05:44:40.527Z,0.61
2019-02-10T05:47:08.707Z,0.60
2019-02-10T05:49:36.883Z,0.58
2019-02-10T05:52:05.103Z,0.60
2019-02-10T05:54:33.278Z,0.58
2019-02-10T05:57:01.468Z,0.58
2019-02-10T05:59:29.645Z,0.58
2019-02-10T06:02:07.463Z,0.57
2019-02-10T06:04:38.992Z,0.57
2019-02-10T06:07:13.131Z,0.57
2019-02-10T06:09:41.343Z,0.58
2019-02-10T06:12:09.554Z,0.59
2019-02-10T06:14:37.737Z,0.59
2019-02-10T06:17:05.945Z,0.60
2019-02-10T06:19:34.126Z,0.61
2019-02-10T06:22:02.303Z,0.62
2019-02-10T06:24:30.485Z,0.62
2019-02-10T06:26:58.667Z,0.62
2019-02-10T06:29:26.880Z,0.62
2019-02-10T06:31:55.089Z,0.63
2019-02-10T06:34:23.300Z,0.63
2019-02-10T06:36:51.510Z,0.64
2019-02-10T06:39:19.692Z,0.65
2019-02-10T06:41:47.893Z,0.67
2019-02-10T06:44:16.079Z,0.68
2019-02-10T06:46:44.260Z,0.69
2019-02-10T06:49:12.437Z,0.69
2019-02-10T06:51:40.613Z,0.70
2019-02-10T06:54:08.798Z,0.70
2019-02-10T06:56:36.985Z,0.71
2019-02-10T06:59:06.805Z,0.74
2019-02-10T07:01:39.528Z,0.75
2019-02-10T07:04:10.910Z,0.77
2019-02-10T07:06:39.085Z,0.77
2019-02-10T07:09:07.269Z,0.79
2019-02-10T07:11:35.439Z,0.80
2019-02-10T07:14:03.628Z,0.81
2019-02-10T07:16:43.879Z,0.82
2019-02-10T07:19:48.340Z,0.85
2019-02-10T07:22:34.747Z,0.89
2019-02-10T07:25:15.141Z,0.93
2019-02-10T07:27:43.860Z,0.98
2019-02-10T07:30:18.298Z,1.01
2019-02-10T07:32:55.288Z,1.04
2019-02-10T07:35:45.029Z,1.09
2019-02-10T07:38:38.525Z,1.13
2019-02-10T07:41:29.919Z,1.19
2019-02-10T07:44:13.433Z,1.23
2019-02-10T07:47:07.452Z,1.29
2019-02-10T07:49:47.634Z,1.33
2019-02-10T07:52:31.181Z,1.37
2019-02-10T07:55:05.336Z,1.42
2019-02-10T07:57:52.891Z,1.48
2019-02-10T08:00:27.164Z,1.52
2019-02-10T08:03:21.104Z,1.60
2019-02-10T08:06:08.947Z,1.65
2019-02-10T08:08:52.788Z,1.71
2019-02-10T08:11:45.412Z,1.78
2019-02-10T08:14:16.851Z,1.84
2019-02-10T08:17:00.109Z,1.92
2019-02-10T08:19:55.976Z,1.97
2019-02-10T08:22:44.276Z,2.02
2019-02-10T08:25:18.396Z,2.06
2019-02-10T08:27:49.891Z,2.09
2019-02-10T08:30:33.022Z,2.11
2019-02-10T08:33:13.166Z,2.15
2019-02-10T08:35:53.574Z,2.21
2019-02-10T08:38:42.552Z,2.26
2019-02-10T08:41:19.746Z,2.32
2019-02-10T08:44:12.114Z,2.35
2019-02-10T08:46:58.552Z,2.39
2019-02-10T08:49:32.753Z,2.39
2019-02-10T08:52:21.988Z,2.39
2019-02-10T08:54:50.202Z,2.40
2019-02-10T08:57:18.415Z,2.44
2019-02-10T08:59:46.586Z,2.42
2019-02-10T09:02:14.800Z,2.39
2019-02-10T09:04:42.972Z,2.42
2019-02-10T09:07:11.142Z,2.44
2019-02-10T09:09:39.335Z,2.47
2019-02-10T09:12:07.541Z,2.48
2019-02-10T09:14:35.743Z,2.53
2019-02-10T09:17:03.947Z,2.58
2019-02-10T09:19:32.151Z,2.68
2019-02-10T09:22:00.324Z,2.78
2019-02-10T09:24:28.498Z,2.85
2019-02-10T09:26:56.672Z,2.92
2019-02-10T09:29:24.843Z,2.98
2019-02-10T09:31:53.019Z,3.05
2019-02-10T09:34:21.191Z,3.10
2019-02-10T09:36:49.372Z,3.20
2019-02-10T09:39:17.583Z,3.25
2019-02-10T09:41:45.770Z,3.30
2019-02-10T09:44:13.930Z,3.34
2019-02-10T09:46:42.131Z,3.37
2019-02-10T09:49:10.376Z,3.42
2019-02-10T09:51:38.584Z,3.49
2019-02-10T09:54:06.868Z,3.51
2019-02-10T09:56:35.042Z,3.60
2019-02-10T09:59:03.214Z,3.70
2019-02-10T10:01:31.390Z,3.81
2019-02-10T10:03:59.573Z,3.87
2019-02-10T10:06:27.770Z,3.91
2019-02-10T10:08:55.971Z,3.97
2019-02-10T10:11:24.143Z,4.03
2019-02-10T10:13:55.201Z,4.16
2019-02-10T10:16:23.444Z,4.27
2019-02-10T10:18:51.619Z,4.40
2019-02-10T10:21:19.800Z,4.49
2019-02-10T10:23:48.013Z,4.55
2019-02-10T10:26:16.206Z,4.59
2019-02-10T10:28:44.442Z,4.65
2019-02-10T10:31:12.614Z,4.70
2019-02-10T10:33:40.795Z,4.74
2019-02-10T10:36:08.967Z,4.83
2019-02-10T10:38:37.148Z,4.82
2019-02-10T10:41:05.326Z,4.85
2019-02-10T10:43:33.591Z,4.90
2019-02-10T10:46:01.762Z,4.96
2019-02-10T10:48:29.951Z,5.00
2019-02-10T10:50:58.159Z,4.96
2019-02-10T10:53:26.347Z,4.92
2019-02-10T10:55:54.552Z,4.92
2019-02-10T10:58:22.730Z,4.87
2019-02-10T11:00:50.911Z,4.95
2019-02-10T11:03:19.124Z,4.99
2019-02-10T11:05:47.319Z,5.06
2019-02-10T11:08:15.502Z,5.18
2019-02-10T11:10:43.707Z,5.19
2019-02-10T11:13:11.890Z,5.14
2019-02-10T11:15:40.067Z,5.10
2019-02-10T11:18:08.251Z,5.06
2019-02-10T11:20:36.447Z,4.98
2019-02-10T11:23:04.644Z,4.93
2019-02-10T11:25:32.820Z,4.85
2019-02-10T11:28:01.036Z,4.80
2019-02-10T11:30:29.228Z,4.76
2019-02-10T11:32:58.379Z,4.74
2019-02-10T11:35:26.551Z,4.72
2019-02-10T11:37:54.754Z,4.72
2019-02-10T11:40:22.971Z,4.67
2019-02-10T11:42:51.199Z,4.62
2019-02-10T11:45:19.427Z,4.63
2019-02-10T11:47:47.604Z,4.68
2019-02-10T11:50:15.788Z,4.69
2019-02-10T11:52:43.972Z,4.72
2019-02-10T11:55:12.179Z,4.78
2019-02-10T11:57:40.391Z,4.88
2019-02-10T12:00:16.800Z,4.99
2019-02-10T12:02:44.999Z,5.11
2019-02-10T12:05:13.201Z,5.21
2019-02-10T12:07:41.389Z,5.28
2019-02-10T12:10:11.968Z,5.30
2019-02-10T12:12:40.190Z,5.35
2019-02-10T12:15:10.596Z,5.40
2019-02-10T12:17:38.794Z,5.44
2019-02-10T12:20:10.196Z,5.49
2019-02-10T12:22:38.412Z,5.49
2019-02-10T12:25:07.885Z,5.49
2019-02-10T12:27:36.684Z,5.46
2019-02-10T12:30:14.011Z,5.44
2019-02-10T12:32:42.184Z,5.48
2019-02-10T12:35:12.822Z,5.53
2019-02-10T12:37:41.000Z,5.63
2019-02-10T12:40:10.421Z,5.79
2019-02-10T12:42:38.635Z,5.92
2019-02-10T12:45:09.171Z,6.05
2019-02-10T12:47:37.349Z,6.10
2019-02-10T12:50:11.221Z,6.12
2019-02-10T12:52:39.439Z,6.13
2019-02-10T12:55:08.764Z,6.15
2019-02-10T12:57:36.943Z,6.21
2019-02-10T13:00:13.688Z,6.24
2019-02-10T13:02:41.893Z,6.22
2019-02-10T13:05:10.195Z,6.18
2019-02-10T13:07:40.941Z,6.13
2019-02-10T13:10:11.952Z,6.14
2019-02-10T13:12:40.128Z,6.10
2019-02-10T13:15:09.845Z,6.06
2019-02-10T13:17:38.116Z,6.04
2019-02-10T13:20:09.057Z,6.02
2019-02-10T13:22:37.306Z,6.04
2019-02-10T13:25:08.037Z,6.11
2019-02-10T13:27:36.271Z,6.16
2019-02-10T13:30:07.546Z,6.21
2019-02-10T13:32:35.771Z,6.20
2019-02-10T13:35:04.379Z,6.20
2019-02-10T13:37:32.622Z,6.22
2019-02-10T13:40:01.256Z,6.25
2019-02-10T13:42:29.525Z,6.24
2019-02-10T13:44:58.118Z,6.20
2019-02-10T13:47:33.446Z,6.16
2019-02-10T13:50:06.014Z,6.07
2019-02-10T13:52:36.581Z,5.97
2019-02-10T13:55:06.897Z,5.94
2019-02-10T13:57:38.047Z,5.90
2019-02-10T14:00:18.079Z,5.91
2019-02-10T14:02:46.301Z,5.98
2019-02-10T14:05:14.561Z,6.00
2019-02-10T14:07:43.036Z,5.97
2019-02-10T14:10:13.538Z,5.94
2019-02-10T14:12:42.189Z,5.91
2019-02-10T14:15:15.320Z,5.90
2019-02-10T14:17:46.714Z,5.83
2019-02-10T14:20:23.465Z,5.78
2019-02-10T14:22:51.685Z,5.71
2019-02-10T14:25:20.054Z,5.65
2019-02-10T14:27:48.254Z,5.63
2019-02-10T14:30:24.021Z,5.61
2019-02-10T14:32:52.201Z,5.54
2019-02-10T14:35:20.367Z,5.50
2019-02-10T14:37:48.539Z,5.45
2019-02-10T14:40:16.715Z,5.44
2019-02-10T14:42:44.886Z,5.41
2019-02-10T14:45:14.328Z,5.34
2019-02-10T14:47:42.499Z,5.28
2019-02-10T14:50:17.050Z,5.23
2019-02-10T14:52:46.219Z,5.14
2019-02-10T14:55:14.426Z,5.08
2019-02-10T14:57:42.635Z,5.03
2019-02-10T15:00:14.801Z,5.01
2019-02-10T15:02:42.976Z,4.99
2019-02-10T15:05:11.225Z,4.77
2019-02-10T15:07:47.710Z,4.97
2019-02-10T15:10:18.168Z,4.95
2019-02-10T15:12:46.358Z,4.93
2019-02-10T15:15:14.573Z,4.90
2019-02-10T15:17:44.722Z,4.86
2019-02-10T15:20:13.766Z,4.84
2019-02-10T15:22:41.952Z,4.79
2019-02-10T15:25:13.838Z,4.75
2019-02-10T15:27:42.042Z,4.69
2019-02-10T15:30:15.333Z,4.67
2019-02-10T15:32:44.443Z,4.63
2019-02-10T15:35:12.614Z,4.58
2019-02-10T15:37:40.806Z,4.53
2019-02-10T15:40:10.632Z,4.49
2019-02-10T15:42:38.815Z,4.47
2019-02-10T15:45:12.113Z,4.44
2019-02-10T15:47:40.310Z,4.40
2019-02-10T15:50:14.489Z,4.38
2019-02-10T15:52:42.664Z,4.36
2019-02-10T15:55:12.192Z,4.34
2019-02-10T15:57:40.372Z,4.32
2019-02-10T16:00:11.907Z,4.31
2019-02-10T16:02:40.104Z,4.29
2019-02-10T16:05:08.278Z,4.29
2019-02-10T16:07:36.452Z,4.25
2019-02-10T16:10:09.227Z,4.26
2019-02-10T16:12:37.514Z,4.24
2019-02-10T16:15:07.535Z,4.22
2019-02-10T16:17:35.742Z,4.20
2019-02-10T16:20:06.262Z,4.15
2019-02-10T16:22:34.450Z,4.09
2019-02-10T16:25:02.615Z,4.03
2019-02-10T16:27:30.817Z,3.96
2019-02-10T16:29:58.995Z,3.92
2019-02-10T16:32:27.203Z,3.89
2019-02-10T16:34:55.385Z,3.85
2019-02-10T16:37:23.587Z,3.80
2019-02-10T16:39:51.802Z,3.77
2019-02-10T16:42:20.003Z,3.72
2019-02-10T16:44:48.289Z,3.69
2019-02-10T16:47:16.471Z,3.66
2019-02-10T16:49:44.706Z,3.63
2019-02-10T16:52:12.908Z,3.61
2019-02-10T16:54:41.086Z,3.57
2019-02-10T16:57:09.298Z,3.53
2019-02-10T16:59:43.281Z,3.51
2019-02-10T17:02:11.469Z,3.51
2019-02-10T17:04:40.542Z,3.50
2019-02-10T17:07:08.720Z,3.48
2019-02-10T17:09:37.821Z,3.47
2019-02-10T17:12:06.004Z,3.47
2019-02-10T17:14:34.200Z,3.47
2019-02-10T17:17:02.381Z,3.45
2019-02-10T17:19:30.599Z,3.43
2019-02-10T17:21:58.774Z,3.43
2019-02-10T17:24:27.006Z,3.41
2019-02-10T17:26:55.242Z,3.41
2019-02-10T17:29:24.208Z,3.38
2019-02-10T17:31:52.388Z,3.32
2019-02-10T17:34:20.581Z,3.30
2019-02-10T17:36:48.779Z,3.28
2019-02-10T17:39:16.949Z,3.27
2019-02-10T17:41:45.520Z,3.25
2019-02-10T17:44:15.655Z,3.22
2019-02-10T17:46:43.874Z,3.19
2019-02-10T17:49:12.053Z,3.14
2019-02-10T17:51:40.231Z,3.10
2019-02-10T17:54:08.407Z,3.06
2019-02-10T17:56:36.590Z,3.05
2019-02-10T17:59:04.769Z,3.02
2019-02-10T18:01:32.955Z,3.02
2019-02-10T18:04:01.173Z,3.03
2019-02-10T18:06:29.361Z,3.05
2019-02-10T18:08:57.590Z,3.05
2019-02-10T18:11:30.895Z,3.07
2019-02-10T18:13:55.722Z,3.04
2019-02-10T18:16:28.286Z,3.08
2019-02-10T18:19:04.071Z,3.14
2019-02-10T18:21:33.891Z,3.24
2019-02-10T18:24:06.695Z,3.45
2019-02-10T18:26:39.295Z,3.65
2019-02-10T18:29:25.407Z,3.86
2019-02-10T18:31:58.133Z,4.06
2019-02-10T18:34:36.730Z,4.23
2019-02-10T18:37:22.998Z,4.32
2019-02-10T18:40:08.937Z,4.49
2019-02-10T18:42:50.952Z,4.56
2019-02-10T18:45:23.827Z,4.60
2019-02-10T18:47:59.351Z,4.60
2019-02-10T18:50:29.300Z,4.60
2019-02-10T18:53:01.765Z,4.66
2019-02-10T18:55:31.573Z,4.67
2019-02-10T18:58:17.874Z,4.74
2019-02-10T19:01:04.134Z,4.74
2019-02-10T19:03:36.909Z,4.76
2019-02-10T19:06:18.457Z,4.77
2019-02-10T19:09:04.448Z,4.80
2019-02-10T19:11:50.843Z,4.92
2019-02-10T19:14:30.803Z,5.00
2019-02-10T19:17:00.620Z,4.94
2019-02-10T19:19:30.436Z,4.75
2019-02-10T19:22:00.295Z,4.60
2019-02-10T19:24:30.198Z,4.44
2019-02-10T19:27:02.533Z,4.34
2019-02-10T19:29:32.348Z,4.23
2019-02-10T19:32:04.497Z,4.15
2019-02-10T19:34:50.451Z,4.10
2019-02-10T19:37:29.493Z,4.05
2019-02-10T19:40:05.241Z,3.99
2019-02-10T19:42:35.053Z,3.92
2019-02-10T19:45:06.115Z,3.90
2019-02-10T19:47:35.928Z,3.88
2019-02-10T19:50:07.271Z,3.88
2019-02-10T19:52:43.061Z,3.87
2019-02-10T19:55:21.942Z,3.83
2019-02-10T19:57:57.474Z,3.81
2019-02-10T20:00:27.310Z,3.77
2019-02-10T20:02:59.934Z,3.73
2019-02-10T20:05:29.749Z,3.69
2019-02-10T20:07:59.695Z,3.65
2019-02-10T20:10:34.965Z,3.41
2019-02-10T20:13:07.792Z,3.57
2019-02-10T20:15:55.934Z,3.58
2019-02-10T20:18:31.693Z,3.61
2019-02-10T20:21:03.918Z,3.62
2019-02-10T20:23:35.682Z,3.63
2019-02-10T20:26:38.409Z,3.64
2019-02-10T20:29:08.214Z,3.63
2019-02-10T20:31:50.337Z,3.62
2019-02-10T20:34:25.987Z,3.59
2019-02-10T20:36:58.588Z,3.55
2019-02-10T20:39:28.345Z,3.53
2019-02-10T20:41:58.218Z,3.53
2019-02-10T20:44:33.424Z,3.52
2019-02-10T20:47:06.004Z,3.50
2019-02-10T20:49:35.853Z,3.48
2019-02-10T20:52:05.826Z,3.47
2019-02-10T20:54:38.355Z,3.45
2019-02-10T20:57:16.954Z,3.47
2019-02-10T20:59:52.556Z,3.48
2019-02-10T21:02:25.080Z,3.45
2019-02-10T21:04:57.654Z,3.47
2019-02-10T21:07:44.104Z,3.47
2019-02-10T21:10:25.096Z,3.47
2019-02-10T21:12:54.901Z,3.51
2019-02-10T21:15:36.988Z,3.52
2019-02-10T21:18:06.799Z,3.51
2019-02-10T21:20:36.681Z,3.50
2019-02-10T21:23:06.445Z,3.47
2019-02-10T21:25:42.002Z,3.44
2019-02-10T21:28:23.680Z,3.42
2019-02-10T21:31:08.238Z,3.39
2019-02-10T21:33:38.046Z,3.35
2019-02-10T21:36:07.885Z,3.35
2019-02-10T21:38:40.379Z,3.37
2019-02-10T21:41:15.687Z,3.35
2019-02-10T21:43:51.100Z,3.37
2019-02-10T21:46:29.670Z,3.34
2019-02-10T21:48:59.318Z,3.35
2019-02-10T21:51:27.496Z,3.32
2019-02-10T21:53:55.667Z,3.30
2019-02-10T21:56:23.837Z,3.31
2019-02-10T21:58:52.018Z,3.30
2019-02-10T22:01:20.217Z,3.27
2019-02-10T22:03:48.424Z,3.26
2019-02-10T22:06:16.749Z,3.24
2019-02-10T22:08:44.853Z,3.07
2019-02-10T22:11:13.024Z,3.20
2019-02-10T22:13:41.231Z,3.18
2019-02-10T22:16:09.676Z,3.17
2019-02-10T22:18:37.864Z,3.15
2019-02-10T22:21:06.060Z,3.14
2019-02-10T22:23:34.314Z,3.14
2019-02-10T22:26:02.492Z,3.17
2019-02-10T22:28:30.668Z,3.18
2019-02-10T22:30:58.835Z,3.21
2019-02-10T22:33:27.004Z,3.20
2019-02-10T22:35:55.212Z,3.19
2019-02-10T22:38:23.377Z,3.17
2019-02-10T22:40:51.582Z,3.18
2019-02-10T22:43:19.763Z,3.17
2019-02-10T22:45:47.926Z,3.17
2019-02-10T22:48:16.162Z,3.14
2019-02-10T22:50:44.328Z,3.16
2019-02-10T22:53:12.497Z,3.15
2019-02-10T22:55:40.669Z,3.17
2019-02-10T22:58:08.838Z,3.17
2019-02-10T23:00:43.879Z,3.19
2019-02-10T23:03:12.222Z,3.20
2019-02-10T23:05:40.428Z,3.17
2019-02-10T23:08:08.633Z,3.17
2019-02-10T23:10:36.793Z,3.20
2019-02-10T23:13:04.961Z,3.19
2019-02-10T23:15:33.132Z,3.20
2019-02-10T23:18:01.309Z,3.23
2019-02-10T23:20:29.509Z,3.24
2019-02-10T23:22:57.714Z,3.24
2019-02-10T23:25:25.895Z,3.23
2019-02-10T23:27:54.068Z,3.22
2019-02-10T23:30:22.239Z,3.20
2019-02-10T23:35:17.755Z,3.13
2019-02-10T23:37:45.923Z,3.13
2019-02-10T23:40:14.132Z,3.11
2019-02-10T23:42:42.337Z,3.10
2019-02-10T23:45:10.504Z,3.08
2019-02-10T23:47:38.693Z,3.04
2019-02-10T23:50:07.838Z,3.01
2019-02-10T23:52:35.971Z,3.00
2019-02-10T23:55:04.677Z,2.98
2019-02-10T23:57:32.858Z,3.00
